createdAt,value
2022-08-08T03:49:57.431Z,99.90
2022-08-08T03:52:13.090Z,99.90
2022-08-08T03:55:01.636Z,99.90
2022-08-08T03:58:32.316Z,99.90
2022-08-08T04:00:19.135Z,99.90
2022-08-08T04:03:04.390Z,99.90
2022-08-08T04:05:47.253Z,99.90
2022-08-08T04:08:33.534Z,99.90
2022-08-08T04:11:03.164Z,99.90
2022-08-08T04:14:03.561Z,99.90
2022-08-08T04:16:40.519Z,99.90
2022-08-08T04:19:23.527Z,99.90
2022-08-08T04:21:52.558Z,99.90
2022-08-08T04:24:29.617Z,99.90
2022-08-08T04:26:59.398Z,99.90
2022-08-08T04:29:27.210Z,99.90
2022-08-08T04:31:58.353Z,99.90
2022-08-08T04:34:28.108Z,99.90
2022-08-08T04:36:59.249Z,99.90
2022-08-08T04:40:03.607Z,99.90
2022-08-08T04:42:15.874Z,99.90
2022-08-08T04:44:47.758Z,99.90
2022-08-08T04:47:15.001Z,99.90
2022-08-08T04:50:00.822Z,99.90
2022-08-08T04:52:33.808Z,99.90
2022-08-08T04:55:01.751Z,99.90
2022-08-08T04:57:28.852Z,99.90
2022-08-08T04:59:59.545Z,99.90
2022-08-08T05:02:28.496Z,99.90
2022-08-08T05:04:59.580Z,99.90
2022-08-08T05:07:33.123Z,99.90
2022-08-08T05:10:13.005Z,99.90
2022-08-08T05:12:53.453Z,99.90
2022-08-08T05:16:48.282Z,99.90
2022-08-08T05:18:15.244Z,99.90
2022-08-08T05:20:48.431Z,99.90
2022-08-08T05:23:17.458Z,99.90
2022-08-08T05:25:44.302Z,99.90
2022-08-08T05:28:14.838Z,99.90
2022-08-08T05:30:47.359Z,99.90
2022-08-08T05:33:14.899Z,99.90
2022-08-08T05:35:44.573Z,99.90
2022-08-08T05:38:31.611Z,99.90
2022-08-08T05:41:03.721Z,99.90
2022-08-08T05:43:39.594Z,99.90
2022-08-08T05:46:21.650Z,99.90
2022-08-08T05:48:54.422Z,99.90
2022-08-08T05:51:22.186Z,99.90
2022-08-08T05:54:24.687Z,99.90
2022-08-08T05:56:42.439Z,99.90
2022-08-08T05:59:59.392Z,99.90
2022-08-08T06:02:32.811Z,99.90
2022-08-08T06:05:24.335Z,99.90
2022-08-08T06:07:51.563Z,99.90
2022-08-08T06:10:32.874Z,99.90
2022-08-08T06:13:00.921Z,99.90
2022-08-08T06:15:50.047Z,99.90
2022-08-08T06:18:21.242Z,99.90
2022-08-08T06:20:54.670Z,99.90
2022-08-08T06:23:48.535Z,99.90
2022-08-08T06:26:43.270Z,99.90
2022-08-08T06:29:26.211Z,99.90
2022-08-08T06:32:10.406Z,99.90
2022-08-08T06:34:56.443Z,99.90
2022-08-08T06:37:39.641Z,99.90
2022-08-08T06:40:12.848Z,99.90
2022-08-08T06:43:10.141Z,99.90
2022-08-08T06:45:39.231Z,99.90
2022-08-08T06:48:06.733Z,99.90
2022-08-08T06:50:38.385Z,99.90
2022-08-08T06:53:14.169Z,99.90
2022-08-08T06:56:00.614Z,99.90
2022-08-08T06:58:33.441Z,99.90
2022-08-08T07:01:11.482Z,99.90
2022-08-08T07:04:36.882Z,99.90
2022-08-08T07:06:56.931Z,99.90
2022-08-08T07:09:45.734Z,99.90
2022-08-08T07:12:36.007Z,99.90
2022-08-08T07:15:11.456Z,99.90
2022-08-08T07:18:35.828Z,99.90
2022-08-08T07:20:54.684Z,99.90
2022-08-08T07:23:57.390Z,99.90
2022-08-08T07:26:32.724Z,99.90
2022-08-08T07:29:05.850Z,99.90
2022-08-08T07:31:36.719Z,99.90
2022-08-08T07:34:09.330Z,99.90
2022-08-08T07:36:48.343Z,99.90
2022-08-08T07:39:22.618Z,99.90
2022-08-08T07:42:04.286Z,99.90
2022-08-08T07:44:40.374Z,99.90
2022-08-08T07:47:08.153Z,99.90
2022-08-08T07:49:36.002Z,99.90
2022-08-08T07:52:13.241Z,99.90
2022-08-08T07:54:59.129Z,99.90
2022-08-08T07:57:50.109Z,99.90
2022-08-08T08:00:18.239Z,99.90
2022-08-08T08:02:47.539Z,99.90
2022-08-08T08:05:26.307Z,99.60
2022-08-08T08:08:03.802Z,98.80
2022-08-08T08:10:33.342Z,98.40
2022-08-08T08:13:25.612Z,98.40
2022-08-08T08:16:13.779Z,98.00
2022-08-08T08:18:56.035Z,98.10
2022-08-08T08:21:44.782Z,97.70
2022-08-08T08:24:14.085Z,97.00
2022-08-08T08:26:52.417Z,97.20
2022-08-08T08:29:20.160Z,96.80
2022-08-08T08:31:57.252Z,96.60
2022-08-08T08:34:32.189Z,96.40
2022-08-08T08:37:03.523Z,95.90
2022-08-08T08:39:59.645Z,95.70
2022-08-08T08:42:31.777Z,95.40
2022-08-08T08:45:21.220Z,94.60
2022-08-08T08:47:53.523Z,94.20
2022-08-08T08:50:32.515Z,92.90
2022-08-08T08:53:34.284Z,92.70
2022-08-08T08:55:56.107Z,92.10
2022-08-08T08:58:39.802Z,91.00
2022-08-08T09:01:14.694Z,90.40
2022-08-08T09:03:46.718Z,88.30
2022-08-08T09:06:33.431Z,86.80
2022-08-08T09:09:18.931Z,85.10
2022-08-08T09:12:01.733Z,84.10
2022-08-08T09:14:34.041Z,80.20
2022-08-08T09:17:05.311Z,78.30
2022-08-08T09:22:02.790Z,78.20
2022-08-08T09:22:27.485Z,76.20
2022-08-08T09:24:55.902Z,74.60
2022-08-08T09:27:56.442Z,71.20
2022-08-08T09:30:14.743Z,68.80
2022-08-08T09:33:12.902Z,66.20
2022-08-08T09:35:50.107Z,63.50
2022-08-08T09:38:53.266Z,58.50
2022-08-08T09:41:33.652Z,55.30
2022-08-08T09:44:33.851Z,52.70
2022-08-08T09:47:26.689Z,50.10
2022-08-08T09:49:56.169Z,49.40
2022-08-08T09:52:59.332Z,48.20
2022-08-08T09:55:51.465Z,45.60
2022-08-08T09:58:20.329Z,45.50
2022-08-08T10:00:57.532Z,45.40
2022-08-08T10:03:31.515Z,44.40
2022-08-08T10:05:58.752Z,43.90
2022-08-08T10:08:29.166Z,43.70
2022-08-08T10:10:58.674Z,42.80
2022-08-08T10:13:35.438Z,43.10
2022-08-08T10:16:03.764Z,42.60
2022-08-08T10:18:33.420Z,42.10
2022-08-08T10:21:25.450Z,42.20
2022-08-08T10:24:11.925Z,41.60
2022-08-08T10:27:04.074Z,40.10
2022-08-08T10:29:59.815Z,36.90
2022-08-08T10:32:39.047Z,37.10
2022-08-08T10:35:20.416Z,36.30
2022-08-08T10:38:05.657Z,35.50
2022-08-08T10:40:33.103Z,34.80
2022-08-08T10:43:03.165Z,34.80
2022-08-08T10:45:39.031Z,35.40
2022-08-08T10:48:11.427Z,35.70
2022-08-08T10:50:39.009Z,34.90
2022-08-08T10:53:12.965Z,34.60
2022-08-08T10:55:46.763Z,36.10
2022-08-08T10:58:13.858Z,35.60
2022-08-08T11:00:52.486Z,35.00
2022-08-08T11:04:01.404Z,34.40
2022-08-08T11:06:34.812Z,36.40
2022-08-08T11:09:14.962Z,36.20
2022-08-08T11:12:05.321Z,36.20
2022-08-08T11:14:34.780Z,35.70
2022-08-08T11:17:03.892Z,35.60
2022-08-08T11:19:33.517Z,35.20
2022-08-08T11:22:01.322Z,35.00
2022-08-08T11:24:35.758Z,34.40
2022-08-08T11:27:10.530Z,34.20
2022-08-08T11:30:04.116Z,33.30
2022-08-08T11:32:41.731Z,33.80
2022-08-08T11:35:27.662Z,34.10
2022-08-08T11:38:35.948Z,35.20
2022-08-08T11:40:52.362Z,35.00
2022-08-08T11:43:24.480Z,35.00
2022-08-08T11:46:09.536Z,34.80
2022-08-08T11:48:41.457Z,34.50
2022-08-08T11:51:29.580Z,33.50
2022-08-08T11:54:02.455Z,33.60
2022-08-08T11:56:42.034Z,32.80
2022-08-08T11:59:10.918Z,32.90
2022-08-08T12:01:38.401Z,33.30
2022-08-08T12:04:08.189Z,33.80
2022-08-08T12:06:35.012Z,33.80
2022-08-08T12:09:09.232Z,34.60
2022-08-08T12:11:42.094Z,35.10
2022-08-08T12:14:10.963Z,35.70
2022-08-08T12:16:48.971Z,36.10
2022-08-08T12:19:16.063Z,36.60
2022-08-08T12:21:59.822Z,37.20
2022-08-08T12:24:51.556Z,37.70
2022-08-08T12:27:21.074Z,38.10
2022-08-08T12:29:59.941Z,37.60
2022-08-08T12:32:31.514Z,37.40
2022-08-08T12:35:04.368Z,37.90
2022-08-08T12:37:40.915Z,38.00
2022-08-08T12:40:23.565Z,37.60
2022-08-08T12:42:52.646Z,38.10
2022-08-08T12:45:57.888Z,38.00
2022-08-08T12:48:35.597Z,38.40
2022-08-08T12:51:03.555Z,37.80
2022-08-08T12:53:37.739Z,39.10
2022-08-08T12:56:18.771Z,38.60
2022-08-08T12:58:54.400Z,39.10
2022-08-08T13:01:34.885Z,38.10
2022-08-08T13:04:24.377Z,37.70
2022-08-08T13:06:58.833Z,37.00
2022-08-08T13:09:43.044Z,37.60
2022-08-08T13:12:32.420Z,38.00
2022-08-08T13:15:03.831Z,37.40
2022-08-08T13:18:08.848Z,37.70
2022-08-08T13:20:20.028Z,37.60
2022-08-08T13:22:47.573Z,38.20
2022-08-08T13:25:16.033Z,38.80
2022-08-08T13:27:44.366Z,39.00
2022-08-08T13:30:18.793Z,38.10
2022-08-08T13:32:54.315Z,37.80
2022-08-08T13:35:24.783Z,38.40
2022-08-08T13:38:05.863Z,37.70
2022-08-08T13:40:35.188Z,37.20
2022-08-08T13:43:03.893Z,38.20
2022-08-08T13:45:31.379Z,38.40
2022-08-08T13:47:59.472Z,37.30
2022-08-08T13:50:35.187Z,37.10
2022-08-08T13:53:25.191Z,37.30
2022-08-08T13:56:01.207Z,36.80
2022-08-08T13:58:31.778Z,37.00
2022-08-08T14:01:11.860Z,36.80
2022-08-08T14:03:54.510Z,36.80
2022-08-08T14:06:34.177Z,37.40
2022-08-08T14:09:24.670Z,37.20
2022-08-08T14:11:49.588Z,36.90
2022-08-08T14:14:21.050Z,37.20
2022-08-08T14:16:53.150Z,37.00
2022-08-08T14:19:57.887Z,37.10
2022-08-08T14:22:21.654Z,37.00
2022-08-08T14:25:07.611Z,36.40
2022-08-08T14:27:37.438Z,36.20
2022-08-08T14:30:18.369Z,36.00
2022-08-08T14:32:45.546Z,35.80
2022-08-08T14:35:13.181Z,35.70
2022-08-08T14:37:59.792Z,35.90
2022-08-08T14:40:30.066Z,35.70
2022-08-08T14:43:01.590Z,35.30
2022-08-08T14:46:01.174Z,35.10
2022-08-08T14:48:27.479Z,35.00
2022-08-08T14:51:06.992Z,35.40
2022-08-08T14:53:55.531Z,35.70
2022-08-08T14:56:24.800Z,36.80
2022-08-08T14:58:52.369Z,35.50
2022-08-08T15:01:40.521Z,35.40
2022-08-08T15:04:09.493Z,35.60
2022-08-08T15:06:37.258Z,35.70
2022-08-08T15:09:04.456Z,36.10
2022-08-08T15:11:36.497Z,35.70
2022-08-08T15:14:13.855Z,36.70
2022-08-08T15:16:42.453Z,37.30
2022-08-08T15:19:10.951Z,36.60
2022-08-08T15:21:37.792Z,36.90
2022-08-08T15:24:12.860Z,37.10
2022-08-08T15:26:41.608Z,37.30
2022-08-08T15:29:08.506Z,36.70
2022-08-08T15:32:17.959Z,37.40
2022-08-08T15:34:29.828Z,37.60
2022-08-08T15:37:01.894Z,37.60
2022-08-08T15:39:31.711Z,38.40
2022-08-08T15:42:06.881Z,37.90
2022-08-08T15:44:38.524Z,38.00
2022-08-08T15:47:07.296Z,38.10
2022-08-08T15:49:44.269Z,37.80
2022-08-08T15:52:13.404Z,38.50
2022-08-08T15:54:46.259Z,39.00
2022-08-08T15:57:18.518Z,39.10
2022-08-08T16:00:25.480Z,39.20
2022-08-08T16:02:32.232Z,39.50
2022-08-08T16:05:01.577Z,39.60
2022-08-08T16:07:51.433Z,39.30
2022-08-08T16:13:14.783Z,39.70
2022-08-08T16:13:29.948Z,39.30
2022-08-08T16:15:58.796Z,39.80
2022-08-08T16:18:35.960Z,40.50
2022-08-08T16:21:02.929Z,40.50
2022-08-08T16:23:32.223Z,40.50
2022-08-08T16:26:04.400Z,41.00
2022-08-08T16:28:36.278Z,40.80
2022-08-08T16:31:08.085Z,41.10
2022-08-08T16:33:39.352Z,41.80
2022-08-08T16:36:15.574Z,42.20
2022-08-08T16:38:47.513Z,41.40
2022-08-08T16:41:22.739Z,42.00
2022-08-08T16:43:51.460Z,42.10
2022-08-08T16:46:43.317Z,42.60
2022-08-08T16:49:07.729Z,42.20
2022-08-08T16:55:03.845Z,41.50
2022-08-08T16:55:04.472Z,42.10
2022-08-08T16:57:27.861Z,42.20
2022-08-08T17:00:08.943Z,41.70
2022-08-08T17:02:39.453Z,41.30
2022-08-08T17:05:13.835Z,41.30
2022-08-08T17:07:41.856Z,41.90
2022-08-08T17:10:10.235Z,41.10
2022-08-08T17:12:38.778Z,41.10
2022-08-08T17:15:17.837Z,41.90
2022-08-08T17:18:03.514Z,42.80
2022-08-08T17:20:39.465Z,43.60
2022-08-08T17:23:16.354Z,42.40
2022-08-08T17:25:53.590Z,43.20
2022-08-08T17:28:22.664Z,43.00
2022-08-08T17:31:39.463Z,43.40
2022-08-08T17:34:53.241Z,44.00
2022-08-08T17:36:55.098Z,44.10
2022-08-08T17:40:04.496Z,45.00
2022-08-08T17:42:14.344Z,44.80
2022-08-08T17:44:44.433Z,44.50
2022-08-08T17:47:23.188Z,44.70
2022-08-08T17:49:51.811Z,45.20
2022-08-08T17:52:24.056Z,45.90
2022-08-08T17:54:56.004Z,45.20
2022-08-08T17:57:23.991Z,45.60
2022-08-08T17:59:51.745Z,46.30
2022-08-08T18:02:26.204Z,46.10
2022-08-08T18:04:58.250Z,46.20
2022-08-08T18:08:03.542Z,46.60
2022-08-08T18:10:14.678Z,46.70
2022-08-08T18:12:44.341Z,46.80
2022-08-08T18:15:12.855Z,47.00
2022-08-08T18:18:27.166Z,47.20
2022-08-08T18:20:43.508Z,47.20
2022-08-08T18:23:15.132Z,47.60
2022-08-08T18:25:43.086Z,48.50
2022-08-08T18:28:13.072Z,49.10
2022-08-08T18:30:43.962Z,49.50
2022-08-08T18:33:36.798Z,50.00
2022-08-08T18:36:03.140Z,50.40
2022-08-08T18:38:32.215Z,51.50
2022-08-08T18:41:01.195Z,52.60
2022-08-08T18:43:42.719Z,53.40
2022-08-08T18:46:56.600Z,53.50
2022-08-08T18:48:56.934Z,54.40
2022-08-08T18:51:48.462Z,54.90
2022-08-08T18:54:22.631Z,55.70
2022-08-08T18:56:55.385Z,56.60
2022-08-08T18:59:23.152Z,57.10
2022-08-08T19:02:25.690Z,57.60
2022-08-08T19:04:37.461Z,58.00
2022-08-08T19:07:04.365Z,58.70
2022-08-08T19:09:48.324Z,59.40
2022-08-08T19:12:15.540Z,59.10
2022-08-08T19:14:43.399Z,60.00
2022-08-08T19:17:11.002Z,60.60
2022-08-08T19:19:44.221Z,60.40
2022-08-08T19:22:26.664Z,61.00
2022-08-08T19:26:01.533Z,61.90
2022-08-08T19:27:56.111Z,62.40
2022-08-08T19:30:26.474Z,62.60
2022-08-08T19:32:54.013Z,63.00
2022-08-08T19:35:25.511Z,63.20
2022-08-08T19:37:57.400Z,63.30
2022-08-08T19:40:30.972Z,62.60
2022-08-08T19:42:59.473Z,62.80
2022-08-08T19:45:59.810Z,62.80
2022-08-08T19:48:28.747Z,63.20
2022-08-08T19:50:59.154Z,63.30
2022-08-08T19:53:51.033Z,63.50
2022-08-08T19:56:14.094Z,65.00
2022-08-08T19:58:51.458Z,65.30
2022-08-08T20:01:22.733Z,65.20
2022-08-08T20:04:02.376Z,65.60
2022-08-08T20:06:30.301Z,65.80
2022-08-08T20:08:57.278Z,66.10
2022-08-08T20:11:24.702Z,66.20
2022-08-08T20:14:31.582Z,66.40
2022-08-08T20:16:40.451Z,67.20
2022-08-08T20:19:08.583Z,68.00
2022-08-08T20:21:37.970Z,68.50
2022-08-08T20:24:07.624Z,69.50
2022-08-08T20:26:38.216Z,69.20
2022-08-08T20:29:08.372Z,69.30
2022-08-08T20:32:07.543Z,68.50
2022-08-08T20:34:28.852Z,68.90
2022-08-08T20:37:02.237Z,69.90
2022-08-08T20:39:39.587Z,70.30
2022-08-08T20:42:19.302Z,70.70
2022-08-08T20:44:47.247Z,71.70
2022-08-08T20:47:23.299Z,71.70
2022-08-08T20:50:03.655Z,72.70
2022-08-08T20:52:32.549Z,72.80
2022-08-08T20:55:16.162Z,74.00
2022-08-08T20:57:51.218Z,73.50
2022-08-08T21:00:18.566Z,73.20
2022-08-08T21:02:48.538Z,73.90
2022-08-08T21:05:19.426Z,73.90
2022-08-08T21:08:33.874Z,74.40
2022-08-08T21:10:36.578Z,76.80
2022-08-08T21:13:05.435Z,79.10
2022-08-08T21:16:04.909Z,79.10
2022-08-08T21:18:23.052Z,80.10
2022-08-08T21:20:54.622Z,78.10
2022-08-08T21:23:25.133Z,78.50
2022-08-08T21:26:08.401Z,78.70
2022-08-08T21:28:35.886Z,82.30
2022-08-08T21:31:06.104Z,84.00
2022-08-08T21:33:50.335Z,84.40
2022-08-08T21:36:28.706Z,86.20
2022-08-08T21:38:57.191Z,86.70
2022-08-08T21:41:29.047Z,87.40
2022-08-08T21:44:09.555Z,88.00
2022-08-08T21:48:07.087Z,89.60
2022-08-08T21:49:23.923Z,90.30
2022-08-08T21:54:23.435Z,90.60
2022-08-08T21:54:54.292Z,91.00
2022-08-08T21:57:25.875Z,90.20
2022-08-08T22:00:03.142Z,91.00
2022-08-08T22:02:31.833Z,92.20
2022-08-08T22:05:00.995Z,91.30
2022-08-08T22:07:40.022Z,91.00
2022-08-08T22:10:18.099Z,92.50
2022-08-08T22:13:17.441Z,92.00
2022-08-08T22:15:43.741Z,93.00
2022-08-08T22:18:26.841Z,92.30
2022-08-08T22:20:54.835Z,92.80
2022-08-08T22:23:21.618Z,93.40
2022-08-08T22:26:27.532Z,94.10
2022-08-08T22:29:12.915Z,94.10
2022-08-08T22:31:29.981Z,93.60
2022-08-08T22:34:13.453Z,93.60
2022-08-08T22:36:42.944Z,93.90
2022-08-08T22:39:11.879Z,94.00
2022-08-08T22:41:46.282Z,94.70
2022-08-08T22:44:16.525Z,95.10
2022-08-08T22:46:45.717Z,95.40
2022-08-08T22:49:17.959Z,95.50
2022-08-08T22:51:47.118Z,94.90
2022-08-08T22:54:32.565Z,95.20
2022-08-08T22:57:01.468Z,95.10
2022-08-08T22:59:36.054Z,95.40
